Time;durP1;ratioP1;P1;durP2;ratioP2;P2;SDS_P1;SDS_P2;PMS_P1;PMS_P2;Temp;Humidity;BMP_temperature;BMP_pressure;BME280_temperature;BME280_humidity;BME280_pressure;Samples;Min_cycle;Max_cycle;Signal;HPM_P1;HPM_P2
2022/02/16 00:01:51;;;;;;;36.60;18.60;;;;;;;3.53;68.19;98828.11;107731;1276;95809;-73
2022/02/16 00:04:19;;;;;;;36.70;18.30;;;;;;;3.55;68.01;98827.30;107124;1277;111433;-73
2022/02/16 00:06:48;;;;;;;38.80;19.70;;;;;;;3.58;68.21;98819.98;105720;1276;97881;-72
2022/02/16 00:09:15;;;;;;;38.80;18.70;;;;;;;3.61;68.17;98820.74;105843;1277;107617;-72
2022/02/16 00:11:43;;;;;;;37.80;18.60;;;;;;;3.63;67.93;98819.40;106018;1276;97915;-72
2022/02/16 00:14:11;;;;;;;39.20;19.20;;;;;;;3.67;67.95;98823.42;105922;1277;96599;-72
2022/02/16 00:16:39;;;;;;;37.60;18.30;;;;;;;3.72;67.92;98827.02;105898;1276;110685;-72
2022/02/16 00:19:07;;;;;;;33.10;16.00;;;;;;;3.77;68.05;98828.23;105943;1277;98066;-71
2022/02/16 00:21:34;;;;;;;35.80;18.30;;;;;;;3.77;68.06;98824.55;105913;1278;107811;-73
2022/02/16 00:24:04;;;;;;;34.80;17.30;;;;;;;3.70;68.08;98821.48;105875;1277;97980;-72
2022/02/16 00:26:33;;;;;;;38.80;18.90;;;;;;;3.65;68.36;98819.47;105886;1276;95942;-72
2022/02/16 00:29:02;;;;;;;38.50;18.10;;;;;;;3.61;68.07;98818.64;105926;1277;111520;-71
2022/02/16 00:31:30;;;;;;;37.50;19.00;;;;;;;3.57;68.20;98817.05;105962;1277;95934;-73
2022/02/16 00:33:58;;;;;;;38.10;18.80;;;;;;;3.56;68.17;98813.04;105918;1276;107620;-73
2022/02/16 00:36:27;;;;;;;39.40;21.40;;;;;;;3.57;68.16;98813.55;105912;1276;97773;-74
2022/02/16 00:38:56;;;;;;;36.50;19.30;;;;;;;3.60;67.90;98812.21;105985;1277;98004;-72
2022/02/16 00:41:24;;;;;;;36.30;17.90;;;;;;;3.61;67.71;98810.89;106005;1277;112286;-70
2022/02/16 00:43:52;;;;;;;33.80;15.60;;;;;;;3.64;67.93;98807.44;105823;1277;97887;-71
2022/02/16 00:46:21;;;;;;;35.60;18.30;;;;;;;3.62;67.87;98808.40;105893;1277;107769;-70
2022/02/16 00:48:49;;;;;;;37.70;19.10;;;;;;;3.61;68.01;98811.78;105935;1277;97992;-72
2022/02/16 00:51:17;;;;;;;37.80;19.90;;;;;;;3.58;68.12;98814.04;106010;1276;96114;-72
2022/02/16 00:53:45;;;;;;;36.70;18.50;;;;;;;3.55;67.97;98808.75;105938;1277;111441;-71
2022/02/16 00:56:14;;;;;;;38.70;18.70;;;;;;;3.56;67.82;98806.93;105837;1276;97933;-71
2022/02/16 00:58:42;;;;;;;36.30;18.50;;;;;;;3.56;68.05;98802.73;105854;1277;106768;-72
2022/02/16 01:01:10;;;;;;;37.20;18.60;;;;;;;3.55;67.79;98808.17;106011;1277;97985;-74
2022/02/16 01:03:39;;;;;;;36.80;17.90;;;;;;;3.54;67.90;98809.48;105969;1277;97950;-72
2022/02/16 01:06:07;;;;;;;33.70;16.90;;;;;;;3.52;68.03;98809.07;105860;1278;111081;-72
2022/02/16 01:08:35;;;;;;;39.00;18.10;;;;;;;3.50;67.93;98806.88;105960;1277;97901;-70
2022/02/16 01:11:02;;;;;;;34.60;18.40;;;;;;;3.48;68.06;98808.92;105928;1277;107609;-72
2022/02/16 01:13:32;;;;;;;38.30;18.70;;;;;;;3.44;67.88;98806.46;105869;1277;98551;-72
2022/02/16 01:16:02;;;;;;;38.40;18.20;;;;;;;3.41;67.93;98797.46;105936;1277;97873;-73
2022/02/16 01:18:32;;;;;;;36.40;18.60;;;;;;;3.39;67.86;98793.88;105831;1277;112404;-73
2022/02/16 01:21:00;;;;;;;35.30;17.20;;;;;;;3.38;68.01;98791.81;105949;1277;97869;-71
2022/02/16 01:23:28;;;;;;;39.70;18.50;;;;;;;3.36;67.90;98785.45;105928;1277;107737;-73
2022/02/16 01:25:59;;;;;;;38.10;18.80;;;;;;;3.33;68.14;98784.72;105814;1277;98078;-73
2022/02/16 01:28:27;;;;;;;35.30;17.20;;;;;;;3.30;68.13;98782.02;105951;1276;97891;-72
2022/02/16 01:30:55;;;;;;;34.70;17.00;;;;;;;3.28;67.91;98785.45;105914;1277;111996;-74
2022/02/16 01:33:22;;;;;;;37.10;18.50;;;;;;;3.25;68.23;98787.20;105830;1277;98972;-74
2022/02/16 01:35:50;;;;;;;39.40;18.40;;;;;;;3.22;67.88;98784.33;105942;1276;107618;-72
2022/02/16 01:38:18;;;;;;;35.60;17.40;;;;;;;3.21;67.98;98786.48;105951;1277;97949;-74
2022/02/16 01:40:46;;;;;;;38.10;17.40;;;;;;;3.17;68.00;98784.23;105945;1277;97870;-74
2022/02/16 01:43:17;;;;;;;35.60;17.40;;;;;;;3.14;68.11;98780.49;105945;1277;111458;-72
2022/02/16 01:45:45;;;;;;;31.50;16.00;;;;;;;3.14;68.14;98777.54;105996;1277;97670;-71
2022/02/16 01:48:13;;;;;;;32.20;15.80;;;;;;;3.18;67.95;98772.60;105858;1277;107795;-72
2022/02/16 01:50:42;;;;;;;35.80;17.30;;;;;;;3.24;68.24;98763.26;106053;1277;97908;-72
2022/02/16 01:53:10;;;;;;;30.90;14.80;;;;;;;3.28;68.20;98760.21;106021;1277;97830;-73
2022/02/16 01:55:40;;;;;;;32.90;15.40;;;;;;;3.32;68.23;98758.11;105952;1277;111459;-72
2022/02/16 01:58:09;;;;;;;35.30;17.30;;;;;;;3.34;68.48;98756.27;106052;1277;98708;-73
2022/02/16 02:00:37;;;;;;;32.30;15.90;;;;;;;3.38;68.30;98759.92;105960;1278;108315;-72
2022/02/16 02:03:05;;;;;;;35.60;16.90;;;;;;;3.40;68.24;98764.18;105929;1278;98018;-73
2022/02/16 02:05:33;;;;;;;34.90;16.60;;;;;;;3.44;68.24;98764.39;105922;1278;95228;-73
2022/02/16 02:08:01;;;;;;;32.20;16.00;;;;;;;3.46;68.14;98760.76;105961;1277;111353;-73
2022/02/16 02:10:32;;;;;;;36.40;17.20;;;;;;;3.48;68.22;98762.94;105984;1278;98021;-73
2022/02/16 02:13:00;;;;;;;31.10;14.80;;;;;;;3.51;68.10;98758.98;106051;1276;107085;-71
2022/02/16 02:15:28;;;;;;;34.40;16.40;;;;;;;3.52;68.11;98752.98;105927;1277;97884;-73
2022/02/16 02:17:56;;;;;;;34.20;17.90;;;;;;;3.47;68.40;98752.85;106045;1278;95200;-72
2022/02/16 02:20:28;;;;;;;33.20;17.70;;;;;;;3.41;68.12;98752.08;105963;1276;112065;-74
2022/02/16 02:22:57;;;;;;;34.90;16.70;;;;;;;3.35;68.22;98745.87;105990;1278;95249;-73
2022/02/16 02:25:26;;;;;;;36.40;16.60;;;;;;;3.29;68.30;98736.69;105938;1277;107579;-72
2022/02/16 02:27:54;;;;;;;34.10;16.40;;;;;;;3.23;68.25;98730.30;105978;1277;97869;-72
2022/02/16 02:30:22;;;;;;;35.50;18.20;;;;;;;3.19;68.49;98723.52;105906;1277;96992;-71
2022/02/16 02:32:50;;;;;;;33.90;16.60;;;;;;;3.16;68.53;98723.63;105932;1277;111423;-71
2022/02/16 02:35:19;;;;;;;35.00;15.90;;;;;;;3.18;68.87;98724.26;105985;1278;98682;-70
2022/02/16 02:37:47;;;;;;;33.20;15.90;;;;;;;3.18;68.60;98723.19;105981;1277;107806;-71
2022/02/16 02:40:14;;;;;;;33.90;16.50;;;;;;;3.19;68.49;98719.14;105960;1278;97896;-74
2022/02/16 02:42:45;;;;;;;33.00;16.70;;;;;;;3.20;68.51;98716.63;105979;1277;96371;-70
2022/02/16 02:45:14;;;;;;;34.40;17.80;;;;;;;3.20;68.55;98712.75;105973;1277;110321;-73
2022/02/16 02:47:44;;;;;;;32.20;16.50;;;;;;;3.18;68.71;98712.52;105950;1278;97976;-74
2022/02/16 02:50:12;;;;;;;35.20;16.90;;;;;;;3.17;68.72;98711.34;106059;1277;107713;-73
2022/02/16 02:52:39;;;;;;;34.80;18.30;;;;;;;3.17;69.12;98707.83;106024;1277;99048;-72
2022/02/16 02:55:12;;;;;;;34.10;16.50;;;;;;;3.13;69.26;98703.81;105966;1276;95980;-73
2022/02/16 02:57:41;;;;;;;35.30;17.10;;;;;;;3.10;69.12;98702.20;106040;1277;112078;-75
2022/02/16 03:00:11;;;;;;;34.10;16.40;;;;;;;3.07;69.07;98702.67;105956;1277;97902;-72
2022/02/16 03:02:39;;;;;;;35.30;17.40;;;;;;;3.07;68.81;98706.40;106056;1278;107736;-75
2022/02/16 03:05:09;;;;;;;32.30;16.00;;;;;;;3.07;69.13;98706.52;106075;1276;97972;-74
2022/02/16 03:07:39;;;;;;;34.80;18.10;;;;;;;3.09;68.90;98707.50;106087;1277;97914;-72
2022/02/16 03:10:09;;;;;;;37.00;18.40;;;;;;;3.10;69.00;98713.21;106033;1277;112094;-73
2022/02/16 03:12:37;;;;;;;32.70;16.80;;;;;;;3.12;68.86;98714.20;106020;1277;97906;-72
2022/02/16 03:15:06;;;;;;;36.60;19.20;;;;;;;3.13;68.62;98711.70;105943;1278;108041;-71
2022/02/16 03:17:34;;;;;;;34.50;17.80;;;;;;;3.14;69.00;98704.82;106010;1278;99049;-71
2022/02/16 03:20:06;;;;;;;34.00;18.60;;;;;;;3.17;68.83;98706.81;105935;1278;97940;-72
2022/02/16 03:22:39;;;;;;;33.90;16.90;;;;;;;3.18;68.73;98710.06;106063;1277;111498;-73
2022/02/16 03:25:12;;;;;;;33.50;17.20;;;;;;;3.18;68.96;98709.89;105973;1277;97862;-71
2022/02/16 03:27:39;;;;;;;35.50;18.30;;;;;;;3.19;68.34;98699.14;105907;1277;107605;-72
2022/02/16 03:30:10;;;;;;;36.30;18.40;;;;;;;3.19;68.74;98707.04;106079;1277;97873;-72
2022/02/16 03:32:37;;;;;;;35.30;18.40;;;;;;;3.20;68.99;98712.95;106020;1278;95228;-71
2022/02/16 03:35:06;;;;;;;37.70;19.30;;;;;;;3.22;68.76;98713.74;105509;1277;646183;-72
2022/02/16 03:37:33;;;;;;;40.00;20.90;;;;;;;3.21;68.97;98713.05;105965;1277;97832;-75
2022/02/16 03:40:03;;;;;;;37.30;19.10;;;;;;;3.20;68.72;98712.60;105980;1277;107849;-70
2022/02/16 03:42:32;;;;;;;39.60;20.20;;;;;;;3.20;68.71;98707.17;105990;1277;97845;-71
2022/02/16 03:45:01;;;;;;;32.70;17.40;;;;;;;3.18;68.74;98710.43;106008;1277;98595;-69
2022/02/16 03:47:29;;;;;;;37.00;17.90;;;;;;;3.15;69.15;98708.45;105945;1277;111899;-70
2022/02/16 03:49:57;;;;;;;32.90;16.80;;;;;;;3.13;68.75;98707.80;105968;1277;97814;-71
2022/02/16 03:52:27;;;;;;;33.50;17.30;;;;;;;3.15;68.92;98710.91;105926;1277;107635;-70
2022/02/16 03:54:55;;;;;;;35.10;17.90;;;;;;;3.16;68.62;98711.89;105849;1277;97966;-72
2022/02/16 03:57:23;;;;;;;34.30;18.30;;;;;;;3.17;68.73;98712.02;106002;1277;97858;-72
2022/02/16 03:59:51;;;;;;;32.50;17.30;;;;;;;3.19;68.80;98703.35;105981;1276;110040;-72
2022/02/16 04:02:19;;;;;;;34.90;18.50;;;;;;;3.21;68.54;98696.41;105962;1277;97980;-73
2022/02/16 04:04:47;;;;;;;33.50;18.10;;;;;;;3.22;68.75;98693.41;105975;1277;107703;-71
2022/02/16 04:07:15;;;;;;;34.60;17.50;;;;;;;3.24;68.94;98697.36;105948;1277;97889;-70
2022/02/16 04:09:45;;;;;;;33.20;16.40;;;;;;;3.25;68.96;98693.98;105976;1277;98063;-72
2022/02/16 04:12:13;;;;;;;34.60;19.10;;;;;;;3.24;69.18;98694.70;106041;1276;111459;-72
2022/02/16 04:14:40;;;;;;;34.50;18.20;;;;;;;3.24;68.98;98694.71;105995;1276;97989;-72
2022/02/16 04:17:08;;;;;;;35.10;18.30;;;;;;;3.24;69.14;98697.50;105943;1276;109329;-72
2022/02/16 04:19:36;;;;;;;34.60;17.10;;;;;;;3.26;69.01;98699.49;105979;1277;97893;-69
2022/02/16 04:22:04;;;;;;;34.80;18.50;;;;;;;3.27;69.05;98700.31;106005;1276;95308;-71
2022/02/16 04:24:32;;;;;;;31.90;16.50;;;;;;;3.30;68.94;98701.63;105977;1276;111165;-71
2022/02/16 04:26:59;;;;;;;34.80;17.80;;;;;;;3.31;69.19;98702.40;105962;1276;97730;-72
2022/02/16 04:29:27;;;;;;;34.40;17.10;;;;;;;3.34;69.02;98699.51;105928;1276;107528;-72
2022/02/16 04:31:55;;;;;;;34.80;19.30;;;;;;;3.35;69.10;98689.05;105923;1276;97975;-70
2022/02/16 04:34:23;;;;;;;37.30;19.20;;;;;;;3.37;69.19;98689.17;105987;1276;97947;-72
2022/02/16 04:36:51;;;;;;;33.70;17.20;;;;;;;3.39;69.26;98689.78;105923;1276;111292;-72
2022/02/16 04:39:19;;;;;;;34.40;18.00;;;;;;;3.41;69.28;98690.69;105939;1277;97831;-72
2022/02/16 04:41:46;;;;;;;32.50;16.60;;;;;;;3.45;69.30;98690.02;105929;1277;107754;-72
2022/02/16 04:44:16;;;;;;;34.80;18.10;;;;;;;3.49;69.35;98697.33;105962;1276;97967;-72
2022/02/16 04:46:44;;;;;;;35.10;17.70;;;;;;;3.53;69.17;98695.20;105961;1276;95919;-74
2022/02/16 04:49:12;;;;;;;35.80;18.90;;;;;;;3.57;69.47;98687.31;105926;1276;111284;-70
2022/02/16 04:51:41;;;;;;;33.60;16.90;;;;;;;3.61;69.08;98687.10;105917;1277;96611;-72
2022/02/16 04:54:09;;;;;;;34.30;17.70;;;;;;;3.66;69.24;98683.20;105979;1276;107815;-72
2022/02/16 04:56:37;;;;;;;33.20;17.40;;;;;;;3.69;69.36;98688.80;105977;1276;98567;-73
2022/02/16 04:59:10;;;;;;;37.30;18.20;;;;;;;3.71;69.31;98688.17;105987;1277;97963;-72
2022/02/16 05:01:45;;;;;;;33.90;18.40;;;;;;;3.72;69.23;98688.31;105938;1277;111271;-72
2022/02/16 05:04:12;;;;;;;41.00;20.30;;;;;;;3.73;69.07;98686.88;105939;1276;97779;-72
2022/02/16 05:06:44;;;;;;;39.70;20.30;;;;;;;3.74;69.27;98684.86;105930;1276;108063;-71
2022/02/16 05:09:13;;;;;;;45.30;22.50;;;;;;;3.77;69.10;98686.83;105963;1277;97956;-73
2022/02/16 05:11:41;;;;;;;45.40;23.10;;;;;;;3.79;69.30;98683.91;105908;1277;96609;-73
2022/02/16 05:14:09;;;;;;;51.80;24.70;;;;;;;3.82;69.55;98686.41;105889;1277;111362;-73
2022/02/16 05:16:37;;;;;;;48.80;23.40;;;;;;;3.83;69.21;98685.83;105866;1276;97912;-75
2022/02/16 05:19:05;;;;;;;42.90;21.30;;;;;;;3.85;69.32;98683.27;105906;1277;107839;-73
2022/02/16 05:21:33;;;;;;;44.50;22.50;;;;;;;3.86;69.46;98682.35;105903;1277;95200;-72
2022/02/16 05:24:01;;;;;;;42.60;20.80;;;;;;;3.88;69.35;98679.09;105941;1277;98693;-71
2022/02/16 05:26:30;;;;;;;38.20;20.80;;;;;;;3.90;69.23;98678.97;105862;1277;111443;-72
2022/02/16 05:29:01;;;;;;;38.80;20.50;;;;;;;3.94;69.25;98681.77;105851;1276;95211;-72
2022/02/16 05:31:31;;;;;;;42.90;21.40;;;;;;;3.97;69.25;98680.88;105890;1277;107802;-72
2022/02/16 05:34:00;;;;;;;35.70;19.70;;;;;;;4.01;69.29;98681.23;105896;1276;97985;-73
2022/02/16 05:36:28;;;;;;;35.40;18.60;;;;;;;4.05;69.60;98680.88;105977;1276;97973;-72
2022/02/16 05:38:57;;;;;;;36.70;18.70;;;;;;;4.07;69.43;98680.58;105901;1276;111443;-70
2022/02/16 05:41:27;;;;;;;39.20;20.50;;;;;;;4.09;69.57;98676.44;105922;1276;97947;-74
2022/02/16 05:44:03;;;;;;;33.70;18.30;;;;;;;4.10;69.72;98674.42;105893;1276;107940;-71
2022/02/16 05:46:31;;;;;;;35.40;17.90;;;;;;;4.14;69.57;98668.98;105864;1277;95691;-73
2022/02/16 05:48:59;;;;;;;30.50;16.50;;;;;;;4.16;69.52;98669.55;105805;1277;95413;-71
2022/02/16 05:51:27;;;;;;;33.60;17.00;;;;;;;4.20;69.62;98665.16;105870;1276;110568;-72
2022/02/16 05:53:58;;;;;;;34.30;17.80;;;;;;;4.22;69.56;98658.76;105962;1277;97988;-70
2022/02/16 05:56:27;;;;;;;36.20;19.30;;;;;;;4.23;69.50;98654.11;105977;1276;107706;-72
2022/02/16 05:58:55;;;;;;;36.30;18.30;;;;;;;4.26;69.78;98655.02;105938;1276;95899;-75
2022/02/16 06:01:24;;;;;;;35.00;17.70;;;;;;;4.27;69.65;98651.79;105955;1276;97858;-73
2022/02/16 06:03:52;;;;;;;34.70;19.00;;;;;;;4.26;69.58;98653.77;105944;1276;111416;-70
2022/02/16 06:06:20;;;;;;;34.70;18.50;;;;;;;4.27;69.61;98650.23;105716;1277;97866;-70
2022/02/16 06:08:49;;;;;;;34.60;18.40;;;;;;;4.27;69.64;98647.59;105990;1276;107685;-68
2022/02/16 06:11:17;;;;;;;36.30;19.30;;;;;;;4.26;69.51;98649.19;105975;1276;98011;-73
2022/02/16 06:13:45;;;;;;;35.40;18.10;;;;;;;4.27;69.58;98654.98;105907;1277;97915;-71
2022/02/16 06:16:13;;;;;;;34.60;18.60;;;;;;;4.27;69.75;98659.54;105973;1276;113162;-70
2022/02/16 06:18:41;;;;;;;34.00;18.10;;;;;;;4.26;69.56;98658.36;105966;1276;95298;-70
2022/02/16 06:21:09;;;;;;;35.60;18.80;;;;;;;4.27;69.59;98657.09;106011;1276;107707;-71
2022/02/16 06:23:41;;;;;;;35.40;19.60;;;;;;;4.27;69.65;98657.23;106030;1276;97851;-70
2022/02/16 06:26:09;;;;;;;34.50;18.90;;;;;;;4.29;69.56;98657.65;105998;1276;95325;-72
2022/02/16 06:28:38;;;;;;;32.60;18.50;;;;;;;4.33;69.64;98659.72;105917;1276;111547;-71
2022/02/16 06:31:07;;;;;;;33.80;18.60;;;;;;;4.35;69.57;98659.59;105925;1276;97963;-70
2022/02/16 06:33:36;;;;;;;34.40;18.60;;;;;;;4.38;69.57;98658.39;105913;1276;107796;-71
2022/02/16 06:36:05;;;;;;;36.00;18.90;;;;;;;4.41;69.67;98657.40;105976;1276;97924;-71
2022/02/16 06:38:33;;;;;;;33.00;17.90;;;;;;;4.43;69.61;98653.42;106104;1276;95242;-71
2022/02/16 06:41:01;;;;;;;41.00;20.10;;;;;;;4.44;69.57;98652.80;106047;1276;111335;-70
2022/02/16 06:43:28;;;;;;;37.20;19.00;;;;;;;4.45;69.51;98650.65;106058;1276;96513;-72
2022/02/16 06:45:56;;;;;;;33.40;18.50;;;;;;;4.46;69.44;98651.33;105992;1276;107751;-72
2022/02/16 06:48:24;;;;;;;35.50;19.30;;;;;;;4.46;69.60;98650.79;106017;1276;97787;-73
2022/02/16 06:50:52;;;;;;;33.40;18.40;;;;;;;4.45;69.64;98647.14;105995;1276;95240;-72
2022/02/16 06:53:20;;;;;;;35.40;18.80;;;;;;;4.44;69.73;98644.20;105924;1276;111360;-70
2022/02/16 06:55:48;;;;;;;35.10;18.10;;;;;;;4.44;69.71;98645.81;105975;1276;97929;-70
2022/02/16 06:58:18;;;;;;;34.40;18.90;;;;;;;4.45;69.70;98646.81;105878;1277;107998;-73
2022/02/16 07:00:46;;;;;;;36.40;18.20;;;;;;;4.46;69.64;98647.45;105902;1276;96479;-72
2022/02/16 07:03:16;;;;;;;32.40;16.60;;;;;;;4.47;69.57;98647.73;105955;1276;97860;-71
2022/02/16 07:05:45;;;;;;;33.60;17.70;;;;;;;4.50;69.67;98642.13;105984;1277;111443;-72
2022/02/16 07:08:14;;;;;;;36.10;18.10;;;;;;;4.53;69.60;98641.83;105948;1277;97896;-72
2022/02/16 07:10:44;;;;;;;32.50;18.20;;;;;;;4.57;69.61;98640.88;105995;1276;107603;-72
2022/02/16 07:13:12;;;;;;;34.30;18.40;;;;;;;4.60;69.54;98640.33;106023;1276;97773;-69
2022/02/16 07:15:40;;;;;;;30.20;16.00;;;;;;;4.65;69.60;98638.19;105967;1279;97854;-71
2022/02/16 07:18:08;;;;;;;31.50;16.70;;;;;;;4.69;69.73;98635.87;105901;1276;112894;-73
2022/02/16 07:20:36;;;;;;;32.50;17.10;;;;;;;4.74;69.67;98636.62;105982;1276;97861;-70
2022/02/16 07:23:04;;;;;;;32.00;17.00;;;;;;;4.78;69.69;98631.82;106010;1276;107730;-71
2022/02/16 07:25:33;;;;;;;34.00;17.50;;;;;;;4.84;69.70;98627.11;106008;1276;97924;-71
2022/02/16 07:28:18;;;;;;;34.20;17.90;;;;;;;4.91;69.82;98617.58;106018;1276;97877;-71
2022/02/16 07:30:48;;;;;;;32.70;16.60;;;;;;;4.97;69.78;98614.59;105926;1276;111504;-71
2022/02/16 07:33:18;;;;;;;35.70;17.40;;;;;;;5.04;69.75;98613.66;105907;1276;97903;-71
2022/02/16 07:35:46;;;;;;;36.60;16.70;;;;;;;5.11;69.80;98609.23;105911;1276;107643;-69
2022/02/16 07:38:14;;;;;;;34.00;18.50;;;;;;;5.20;69.75;98607.16;105898;1277;97887;-70
2022/02/16 07:40:43;;;;;;;33.30;17.50;;;;;;;5.27;69.76;98605.70;105907;1276;97836;-69
2022/02/16 07:43:12;;;;;;;31.80;16.40;;;;;;;5.34;69.90;98600.36;105917;1276;111717;-70
2022/02/16 07:45:40;;;;;;;32.70;16.30;;;;;;;5.41;69.79;98599.08;105910;1276;95272;-70
2022/02/16 07:48:08;;;;;;;33.70;18.10;;;;;;;5.48;69.88;98596.76;105869;1276;107787;-71
2022/02/16 07:50:37;;;;;;;37.40;18.00;;;;;;;5.53;69.78;98592.92;105900;1276;96996;-70
2022/02/16 07:53:05;;;;;;;30.50;16.30;;;;;;;5.58;69.76;98593.71;105924;1276;97103;-68
2022/02/16 07:55:34;;;;;;;32.40;17.40;;;;;;;5.64;69.78;98595.42;105875;1276;111438;-69
2022/02/16 07:58:02;;;;;;;33.10;17.40;;;;;;;5.70;69.93;98597.94;105916;1276;97950;-72
2022/02/16 08:00:39;;;;;;;32.60;16.60;;;;;;;5.75;69.85;98599.70;105924;1276;107803;-73
2022/02/16 08:03:07;;;;;;;31.70;17.70;;;;;;;5.85;69.95;98598.77;105933;1276;97936;-72
2022/02/16 08:05:40;;;;;;;34.90;17.50;;;;;;;5.92;69.68;98592.50;105941;1276;95286;-72
2022/02/16 08:08:09;;;;;;;34.10;17.10;;;;;;;6.01;69.64;98589.70;105879;1276;111300;-73
2022/02/16 08:10:37;;;;;;;33.20;17.60;;;;;;;6.08;69.80;98587.17;105899;1277;98566;-70
2022/02/16 08:13:04;;;;;;;32.80;16.80;;;;;;;6.13;69.53;98579.99;105917;1277;107877;-70
2022/02/16 08:15:33;;;;;;;30.80;16.40;;;;;;;6.18;69.73;98584.27;105899;1276;95418;-71
2022/02/16 08:18:02;;;;;;;33.20;16.30;;;;;;;6.25;69.77;98583.33;106065;1277;97883;-71
2022/02/16 08:20:32;;;;;;;30.20;16.10;;;;;;;6.33;69.90;98581.78;105954;1279;111420;-70
2022/02/16 08:23:00;;;;;;;30.90;15.30;;;;;;;6.41;69.88;98584.96;105894;1276;97868;-70
2022/02/16 08:25:28;;;;;;;31.50;15.90;;;;;;;6.48;69.91;98580.51;105866;1279;108616;-69
2022/02/16 08:27:57;;;;;;;30.50;15.70;;;;;;;6.55;69.91;98584.27;105851;1279;97891;-71
2022/02/16 08:30:25;;;;;;;30.80;16.20;;;;;;;6.60;69.69;98579.74;105896;1276;97820;-69
2022/02/16 08:32:54;;;;;;;31.60;17.00;;;;;;;6.62;69.61;98573.80;105865;1277;112449;-70
2022/02/16 08:35:24;;;;;;;28.40;15.80;;;;;;;6.63;69.56;98571.79;105839;1276;98108;-69
2022/02/16 08:37:53;;;;;;;29.80;15.50;;;;;;;6.65;69.58;98560.38;105859;1277;108892;-70
2022/02/16 08:40:23;;;;;;;28.70;15.10;;;;;;;6.70;69.54;98557.94;105766;1279;96651;-69
2022/02/16 08:43:12;;;;;;;29.40;15.20;;;;;;;6.76;69.69;98557.35;105916;1279;97966;-71
2022/02/16 08:45:44;;;;;;;31.20;15.80;;;;;;;6.84;69.58;98551.05;105909;1279;111415;-69
2022/02/16 08:48:12;;;;;;;32.40;17.30;;;;;;;6.95;69.27;98546.11;105909;1277;97966;-70
2022/02/16 08:50:41;;;;;;;27.90;14.60;;;;;;;7.05;69.40;98542.77;105968;1277;107801;-71
2022/02/16 08:53:09;;;;;;;28.30;14.30;;;;;;;7.15;69.28;98536.50;105799;1278;97970;-71
2022/02/16 08:55:36;;;;;;;29.50;14.40;;;;;;;7.27;69.13;98536.23;105900;1277;97869;-70
2022/02/16 08:58:05;;;;;;;28.70;15.20;;;;;;;7.39;69.23;98531.37;105902;1276;111487;-69
2022/02/16 09:00:35;;;;;;;30.10;16.10;;;;;;;7.49;68.98;98531.89;105864;1279;98124;-69
2022/02/16 09:03:03;;;;;;;26.80;12.60;;;;;;;7.65;69.05;98525.73;105923;1276;107437;-71
2022/02/16 09:05:31;;;;;;;28.40;14.50;;;;;;;7.86;68.64;98517.84;105858;1277;98065;-69
2022/02/16 09:07:59;;;;;;;26.90;14.70;;;;;;;8.11;68.97;98511.54;105908;1277;97883;-70
2022/02/16 09:10:27;;;;;;;30.70;15.10;;;;;;;8.41;68.88;98502.16;105931;1277;110422;-72
2022/02/16 09:12:55;;;;;;;29.10;15.20;;;;;;;8.71;68.53;98504.06;105946;1277;97782;-73
2022/02/16 09:15:26;;;;;;;27.00;13.80;;;;;;;8.90;68.09;98497.54;105994;1276;107716;-71
2022/02/16 09:17:57;;;;;;;29.60;14.90;;;;;;;8.96;67.75;98491.27;105994;1276;98002;-71
2022/02/16 09:20:25;;;;;;;28.50;14.20;;;;;;;9.06;67.67;98485.58;105952;1276;97880;-70
2022/02/16 09:22:55;;;;;;;28.20;13.70;;;;;;;9.09;67.63;98476.35;105939;1276;111394;-71
2022/02/16 09:25:23;;;;;;;28.10;13.60;;;;;;;9.03;67.64;98479.42;105927;1276;97897;-70
2022/02/16 09:27:52;;;;;;;29.50;14.20;;;;;;;8.96;67.54;98478.02;105926;1276;107751;-70
2022/02/16 09:30:20;;;;;;;26.30;12.80;;;;;;;8.90;67.53;98483.41;106020;1276;97985;-69
2022/02/16 09:32:49;;;;;;;29.50;14.10;;;;;;;8.87;67.43;98482.20;105904;1277;97895;-70
2022/02/16 09:35:17;;;;;;;27.50;14.00;;;;;;;8.84;67.30;98482.61;105824;1276;111864;-70
2022/02/16 09:37:45;;;;;;;28.50;13.80;;;;;;;8.85;67.38;98483.05;105873;1277;95238;-70
2022/02/16 09:40:15;;;;;;;25.90;13.00;;;;;;;8.88;67.28;98480.92;105973;1276;107592;-69
2022/02/16 09:42:44;;;;;;;24.70;12.80;;;;;;;8.89;67.15;98479.02;106022;1276;97989;-70
2022/02/16 09:45:16;;;;;;;25.80;13.00;;;;;;;8.90;67.09;98472.64;105931;1276;96056;-70
2022/02/16 09:47:46;;;;;;;27.40;13.40;;;;;;;8.86;65.85;98468.53;105914;1276;111361;-71
2022/02/16 09:50:17;;;;;;;29.60;14.20;;;;;;;8.85;66.43;98465.23;105974;1276;97759;-71
2022/02/16 09:52:44;;;;;;;28.40;13.80;;;;;;;8.94;66.74;98458.17;105904;1276;107734;-71
2022/02/16 09:55:14;;;;;;;25.20;13.10;;;;;;;9.09;66.69;98454.54;105956;1276;98522;-72
2022/02/16 09:57:42;;;;;;;27.10;13.10;;;;;;;9.21;66.41;98453.84;105851;1278;97969;-72
2022/02/16 10:00:12;;;;;;;26.60;13.60;;;;;;;9.23;65.93;98452.48;105891;1276;111287;-71
2022/02/16 10:02:45;;;;;;;25.80;13.20;;;;;;;9.18;65.89;98450.70;105844;1276;95208;-74
2022/02/16 10:05:17;;;;;;;27.00;13.90;;;;;;;9.15;65.84;98448.14;105851;1277;108554;-70
2022/02/16 10:07:52;;;;;;;26.40;13.20;;;;;;;9.14;65.84;98442.53;105774;1279;97947;-70
2022/02/16 10:10:29;;;;;;;26.90;13.70;;;;;;;9.14;65.25;98438.45;105817;1276;95249;-70
2022/02/16 10:12:59;;;;;;;25.10;12.20;;;;;;;9.15;65.30;98435.55;105830;1276;111112;-69
2022/02/16 10:15:40;;;;;;;25.30;12.50;;;;;;;9.19;65.33;98429.37;105909;1277;98024;-70
2022/02/16 10:18:15;;;;;;;23.40;10.50;;;;;;;9.22;65.27;98427.71;105818;1277;108769;-70
2022/02/16 10:20:45;;;;;;;25.30;11.00;;;;;;;9.23;64.98;98423.25;105782;1279;98849;-69
2022/02/16 10:23:16;;;;;;;23.20;10.80;;;;;;;9.20;64.81;98416.20;105909;1277;98062;-70
2022/02/16 10:25:50;;;;;;;21.30;9.80;;;;;;;9.16;64.26;98419.54;105882;1276;110399;-66
2022/02/16 10:28:20;;;;;;;;;;;;;;;9.10;64.16;98418.63;105898;1276;97875;-69
2022/02/16 10:31:07;;;;;;;27.90;11.40;;;;;;;9.01;64.16;98415.02;105866;1276;108349;-70
2022/02/16 10:33:44;;;;;;;25.00;11.30;;;;;;;8.95;63.89;98412.82;105888;1276;97967;-68
2022/02/16 10:36:20;;;;;;;24.10;11.10;;;;;;;8.89;63.82;98413.45;105752;1277;98356;-70
2022/02/16 10:39:01;;;;;;;24.00;11.20;;;;;;;8.82;63.75;98402.47;105731;1279;111318;-70
2022/02/16 10:41:42;;;;;;;24.50;10.80;;;;;;;8.78;63.62;98393.77;105836;1276;95814;-70
2022/02/16 10:44:40;;;;;;;26.50;11.40;;;;;;;8.73;63.63;98386.42;105860;1276;107902;-72
2022/02/16 10:47:11;;;;;;;23.30;11.20;;;;;;;8.62;63.71;98384.23;105876;1276;97957;-70
2022/02/16 10:49:46;;;;;;;24.90;12.30;;;;;;;8.58;63.72;98381.67;105890;1276;97998;-70
2022/02/16 10:52:22;;;;;;;26.40;12.40;;;;;;;8.57;63.89;98370.95;105859;1277;111427;-71
2022/02/16 10:55:02;;;;;;;24.20;12.00;;;;;;;8.61;63.94;98360.41;105908;1276;97992;-75
2022/02/16 10:57:30;;;;;;;24.40;12.30;;;;;;;8.69;63.89;98352.43;105885;1276;107975;-71
2022/02/16 10:59:59;;;;;;;24.60;11.90;;;;;;;8.77;63.87;98348.23;105818;1276;96557;-71
2022/02/16 11:02:29;;;;;;;24.40;12.40;;;;;;;8.85;63.58;98340.94;105793;1277;97926;-71
2022/02/16 11:05:01;;;;;;;26.70;12.50;;;;;;;8.86;63.33;98337.45;105775;1277;112046;-70
2022/02/16 11:07:32;;;;;;;25.70;12.20;;;;;;;8.87;63.47;98327.31;105895;1276;97868;-70
2022/02/16 11:10:04;;;;;;;26.50;12.50;;;;;;;8.91;63.50;98320.83;105747;1278;107736;-72
2022/02/16 11:12:32;;;;;;;26.30;12.10;;;;;;;8.93;63.28;98314.11;105674;1278;97867;-71
2022/02/16 11:15:02;;;;;;;27.60;12.50;;;;;;;8.94;62.72;98315.67;105841;1277;98462;-70
2022/02/16 11:17:31;;;;;;;25.00;11.70;;;;;;;8.96;62.99;98307.41;105893;1277;111385;-71
2022/02/16 11:20:22;;;;;;;25.40;11.30;;;;;;;9.02;63.06;98301.40;105763;1277;95361;-71
2022/02/16 11:22:51;;;;;;;25.60;11.90;;;;;;;9.21;62.71;98295.54;105917;1275;107786;-70
2022/02/16 11:25:45;;;;;;;23.00;11.50;;;;;;;9.44;62.49;98289.61;105887;1277;97855;-72